Time;durP1;ratioP1;P1;durP2;ratioP2;P2;SDS_P1;SDS_P2;PMS_P1;PMS_P2;Temp;Humidity;BMP_temperature;BMP_pressure;BME280_temperature;BME280_humidity;BME280_pressure;Samples;Min_cycle;Max_cycle;Signal;HPM_P1;HPM_P2
2021/05/23 00:02:11;;;;;;;19.80;11.23;;;10.20;94.80;;;;;;5004798;28;20056;-68
2021/05/23 00:04:37;;;;;;;20.83;11.48;;;10.20;94.80;;;;;;4992661;28;20026;-67
2021/05/23 00:07:02;;;;;;;17.50;10.88;;;10.20;94.80;;;;;;4990433;28;20033;-67
2021/05/23 00:09:28;;;;;;;20.35;10.50;;;10.20;94.70;;;;;;5005035;28;20052;-67
2021/05/23 00:11:54;;;;;;;16.73;10.00;;;10.20;94.80;;;;;;4988406;28;20033;-67
2021/05/23 00:14:21;;;;;;;17.50;10.88;;;10.20;94.80;;;;;;5005524;28;20037;-67
2021/05/23 00:16:47;;;;;;;16.77;10.52;;;10.20;94.80;;;;;;5005345;28;20884;-67
2021/05/23 00:19:13;;;;;;;19.52;10.90;;;10.20;94.80;;;;;;5004028;28;20022;-67
2021/05/23 00:21:39;;;;;;;17.95;10.65;;;10.20;94.80;;;;;;5005825;28;20364;-67
2021/05/23 00:24:05;;;;;;;19.02;10.50;;;10.20;94.80;;;;;;5006975;28;20022;-67
2021/05/23 00:26:35;;;;;;;17.70;10.00;;;10.20;94.80;;;;;;5003687;28;20065;-67
2021/05/23 00:29:00;;;;;;;17.27;10.07;;;10.20;94.70;;;;;;5005407;28;20519;-67
2021/05/23 00:31:26;;;;;;;15.55;10.52;;;10.20;94.80;;;;;;5005341;28;20058;-67
2021/05/23 00:33:52;;;;;;;21.15;11.13;;;10.10;94.80;;;;;;5004544;28;20101;-67
2021/05/23 00:36:20;;;;;;;17.85;10.00;;;10.10;94.80;;;;;;4991844;28;20384;-67
2021/05/23 00:38:46;;;;;;;17.67;10.60;;;10.10;94.90;;;;;;5005757;28;20034;-68
2021/05/23 00:41:12;;;;;;;14.45;9.52;;;10.20;94.90;;;;;;4992636;28;20029;-69
2021/05/23 00:43:38;;;;;;;17.38;10.35;;;10.10;94.80;;;;;;5008442;28;20022;-68
2021/05/23 00:46:03;;;;;;;21.35;10.68;;;10.10;94.80;;;;;;4986089;28;20026;-68
2021/05/23 00:48:29;;;;;;;20.85;10.35;;;10.10;94.90;;;;;;5006807;28;20074;-67
2021/05/23 00:50:54;;;;;;;20.63;10.20;;;10.10;94.90;;;;;;5004772;28;20074;-67
2021/05/23 00:53:20;;;;;;;18.80;10.38;;;10.10;94.90;;;;;;5003290;28;20026;-67
2021/05/23 00:55:46;;;;;;;16.95;9.80;;;10.10;94.90;;;;;;5001020;28;20038;-67
2021/05/23 00:58:12;;;;;;;15.85;9.90;;;10.10;94.90;;;;;;5000688;28;20536;-67
2021/05/23 01:00:48;;;;;;;18.63;10.80;;;10.10;94.90;;;;;;5004331;28;20489;-67
2021/05/23 01:03:26;;;;;;;20.92;10.50;;;10.10;94.90;;;;;;5000786;28;20487;-67
2021/05/23 01:06:05;;;;;;;15.88;10.02;;;10.10;95.00;;;;;;4996736;28;20090;-67
2021/05/23 01:08:32;;;;;;;17.63;10.60;;;10.00;95.00;;;;;;5003667;28;20185;-67
2021/05/23 01:11:02;;;;;;;18.67;11.40;;;10.00;95.00;;;;;;5001765;28;20022;-67
2021/05/23 01:13:35;;;;;;;19.52;10.93;;;10.00;95.00;;;;;;4998604;28;20663;-67
2021/05/23 01:16:17;;;;;;;21.80;11.25;;;9.90;95.00;;;;;;5000094;28;20502;-67
2021/05/23 01:19:13;;;;;;;20.85;11.88;;;9.90;95.30;;;;;;4999913;28;20045;-67
2021/05/23 01:21:42;;;;;;;17.83;10.98;;;9.90;95.10;;;;;;5002847;28;20022;-67
2021/05/23 01:24:19;;;;;;;23.58;10.93;;;9.90;95.10;;;;;;5002044;28;20112;-67
2021/05/23 01:26:52;;;;;;;21.52;11.82;;;9.80;95.10;;;;;;4986182;28;20053;-67
2021/05/23 01:29:18;;;;;;;19.75;11.95;;;9.80;95.20;;;;;;4999790;28;20022;-67
2021/05/23 01:31:46;;;;;;;17.15;10.93;;;9.80;95.30;;;;;;4986545;28;20033;-67
2021/05/23 01:34:16;;;;;;;18.88;11.38;;;9.70;95.30;;;;;;5002005;28;20067;-67
2021/05/23 01:36:42;;;;;;;21.77;13.07;;;9.70;95.40;;;;;;5000254;28;20042;-67
2021/05/23 01:39:10;;;;;;;23.63;11.48;;;9.70;95.40;;;;;;5002857;28;20421;-67
2021/05/23 01:41:37;;;;;;;21.80;12.55;;;9.80;95.50;;;;;;4999462;28;20030;-67
2021/05/23 01:44:04;;;;;;;21.75;12.10;;;9.80;95.50;;;;;;4999920;28;20033;-67
2021/05/23 01:46:30;;;;;;;18.00;11.30;;;9.80;95.50;;;;;;4982565;28;20507;-67
2021/05/23 01:48:56;;;;;;;17.83;11.88;;;9.90;95.50;;;;;;5000270;28;20047;-67
2021/05/23 01:51:21;;;;;;;22.00;12.40;;;9.80;95.50;;;;;;5002189;28;20026;-67
2021/05/23 01:53:47;;;;;;;19.52;12.40;;;9.90;95.60;;;;;;5000113;28;20037;-67
2021/05/23 01:56:13;;;;;;;24.17;12.15;;;9.90;95.50;;;;;;4999139;28;20022;-67
2021/05/23 01:58:39;;;;;;;20.63;12.30;;;9.90;95.50;;;;;;4982825;28;20026;-67
2021/05/23 02:01:05;;;;;;;19.90;11.98;;;9.90;95.50;;;;;;5001125;28;20030;-67
2021/05/23 02:03:31;;;;;;;21.42;13.57;;;10.00;95.60;;;;;;5003343;28;20375;-67
2021/05/23 02:05:59;;;;;;;26.20;15.13;;;10.00;95.60;;;;;;4999265;28;20072;-67
2021/05/23 02:08:27;;;;;;;27.05;17.40;;;10.00;95.60;;;;;;5000181;28;20045;-67
2021/05/23 02:10:59;;;;;;;24.63;17.20;;;10.00;95.70;;;;;;4981281;28;20061;-67
2021/05/23 02:13:25;;;;;;;30.35;20.92;;;10.10;95.70;;;;;;4999686;28;20121;-67
2021/05/23 02:15:52;;;;;;;27.08;20.08;;;10.10;95.70;;;;;;5001618;28;20065;-67
2021/05/23 02:18:17;;;;;;;35.10;23.10;;;10.10;95.60;;;;;;4999969;28;20030;-67
2021/05/23 02:20:43;;;;;;;34.28;22.60;;;10.10;95.60;;;;;;5000006;28;20501;-67
2021/05/23 02:23:21;;;;;;;32.55;23.50;;;10.10;95.60;;;;;;4984501;28;20460;-67
2021/05/23 02:25:47;;;;;;;33.17;23.95;;;10.10;95.60;;;;;;4999746;28;20041;-67
2021/05/23 02:28:15;;;;;;;31.83;22.05;;;10.20;95.60;;;;;;4991414;28;20050;-67
2021/05/23 02:30:46;;;;;;;33.50;24.50;;;10.10;95.60;;;;;;5001956;28;20026;-67
2021/05/23 02:33:14;;;;;;;33.38;25.10;;;10.10;95.60;;;;;;4998587;28;20034;-67
2021/05/23 02:35:43;;;;;;;36.20;25.00;;;10.20;95.60;;;;;;4998077;28;20163;-68
2021/05/23 02:38:10;;;;;;;34.72;24.50;;;10.10;95.50;;;;;;5000669;28;20036;-67
2021/05/23 02:40:37;;;;;;;37.88;25.95;;;10.10;95.50;;;;;;5001552;28;20030;-67
2021/05/23 02:43:04;;;;;;;40.03;27.30;;;10.20;95.60;;;;;;4985418;28;20502;-67
2021/05/23 02:45:30;;;;;;;43.28;27.92;;;10.20;95.60;;;;;;4976702;28;20034;-67
2021/05/23 02:47:56;;;;;;;41.70;28.65;;;10.10;95.60;;;;;;4985623;28;20026;-67
2021/05/23 02:50:25;;;;;;;42.75;28.13;;;10.20;95.60;;;;;;4999119;28;20041;-67
2021/05/23 02:52:51;;;;;;;45.83;29.80;;;10.20;95.90;;;;;;4998578;28;20025;-67
2021/05/23 02:55:17;;;;;;;43.97;28.92;;;10.20;95.70;;;;;;4982939;28;20045;-67
2021/05/23 02:57:44;;;;;;;48.20;30.00;;;10.20;95.70;;;;;;4986002;28;20022;-67
2021/05/23 03:00:16;;;;;;;46.72;29.83;;;10.20;95.70;;;;;;4998449;28;20018;-67
2021/05/23 03:02:42;;;;;;;48.75;29.98;;;10.20;95.70;;;;;;5003483;28;20548;-67
2021/05/23 03:05:10;;;;;;;45.80;28.67;;;10.20;95.70;;;;;;4983896;28;20566;-67
2021/05/23 03:07:37;;;;;;;46.28;28.90;;;10.20;96.00;;;;;;5000042;28;20076;-67
2021/05/23 03:10:06;;;;;;;45.78;28.95;;;10.30;95.70;;;;;;4994333;28;20030;-67
2021/05/23 03:12:31;;;;;;;52.15;31.77;;;10.30;95.70;;;;;;5001590;28;20042;-67
2021/05/23 03:14:57;;;;;;;49.85;30.83;;;10.30;95.80;;;;;;4998283;28;20056;-67
2021/05/23 03:17:22;;;;;;;53.55;31.33;;;10.30;95.70;;;;;;4998904;28;20030;-67
2021/05/23 03:19:48;;;;;;;51.83;31.25;;;10.30;95.80;;;;;;4979315;28;20030;-68
2021/05/23 03:22:13;;;;;;;52.20;31.85;;;10.30;95.80;;;;;;4999541;28;20525;-67
2021/05/23 03:24:39;;;;;;;59.05;34.38;;;10.30;95.80;;;;;;4987410;28;20049;-67
2021/05/23 03:27:05;;;;;;;60.88;35.75;;;10.30;96.00;;;;;;4999252;28;20126;-68
2021/05/23 03:29:30;;;;;;;60.20;36.17;;;10.30;95.80;;;;;;5000379;28;20045;-67
2021/05/23 03:31:56;;;;;;;55.92;35.47;;;10.30;95.80;;;;;;4997851;28;20048;-67
2021/05/23 03:34:22;;;;;;;60.70;36.63;;;10.30;95.80;;;;;;5000182;28;20022;-67
2021/05/23 03:36:47;;;;;;;59.55;34.47;;;10.30;95.80;;;;;;5003390;28;20530;-67
2021/05/23 03:39:13;;;;;;;62.78;36.30;;;10.30;95.90;;;;;;4999576;28;20062;-67
2021/05/23 03:41:38;;;;;;;64.82;38.20;;;10.30;95.90;;;;;;5001556;28;20026;-67
2021/05/23 03:44:04;;;;;;;60.13;36.70;;;10.30;95.90;;;;;;4999411;28;20030;-67
2021/05/23 03:46:29;;;;;;;59.72;35.20;;;10.30;95.90;;;;;;4983313;28;20026;-67
2021/05/23 03:48:55;;;;;;;59.85;36.60;;;10.30;95.90;;;;;;4986304;28;20568;-67
2021/05/23 03:51:20;;;;;;;62.65;36.28;;;10.30;96.00;;;;;;4999047;28;20049;-67
2021/05/23 03:53:46;;;;;;;60.63;35.45;;;10.30;96.00;;;;;;4983248;28;20030;-67
2021/05/23 03:56:12;;;;;;;57.45;34.58;;;10.30;95.90;;;;;;4999418;28;20033;-67
2021/05/23 03:58:37;;;;;;;60.70;34.95;;;10.30;95.90;;;;;;4999413;28;20065;-67
2021/05/23 04:01:03;;;;;;;60.10;36.05;;;10.20;95.90;;;;;;4999015;28;20033;-67
2021/05/23 04:03:29;;;;;;;55.95;35.45;;;10.20;96.00;;;;;;5000118;28;20033;-67
2021/05/23 04:05:55;;;;;;;57.35;34.58;;;10.20;96.00;;;;;;4997903;28;20018;-67
2021/05/23 04:08:20;;;;;;;61.75;36.78;;;10.20;96.00;;;;;;5001409;28;20052;-67
2021/05/23 04:10:54;;;;;;;60.22;38.05;;;10.30;96.10;;;;;;4983804;28;20033;-67
2021/05/23 04:13:22;;;;;;;67.32;38.50;;;10.30;96.10;;;;;;5000258;28;20029;-67
2021/05/23 04:15:48;;;;;;;67.15;38.67;;;10.40;96.10;;;;;;4997141;28;21356;-67
2021/05/23 04:18:13;;;;;;;61.20;38.97;;;10.40;96.10;;;;;;4998867;28;20038;-67
2021/05/23 04:20:39;;;;;;;62.65;38.47;;;10.40;96.10;;;;;;4998925;28;20022;-67
2021/05/23 04:23:04;;;;;;;68.03;38.83;;;10.40;96.10;;;;;;5000298;28;20498;-67
2021/05/23 04:25:30;;;;;;;70.40;40.05;;;10.50;96.10;;;;;;4999326;28;20506;-68
2021/05/23 04:27:56;;;;;;;63.20;38.58;;;10.50;96.10;;;;;;5000020;28;20141;-68
2021/05/23 04:30:24;;;;;;;65.20;38.85;;;10.50;96.10;;;;;;5000676;28;20700;-68
2021/05/23 04:32:50;;;;;;;66.40;40.92;;;10.60;96.10;;;;;;5002319;28;20059;-68
2021/05/23 04:35:16;;;;;;;64.20;38.75;;;10.60;96.00;;;;;;5001698;28;20109;-68
2021/05/23 04:37:44;;;;;;;63.03;38.00;;;10.60;96.00;;;;;;5000780;28;20038;-68
2021/05/23 04:40:11;;;;;;;71.80;41.85;;;10.60;95.90;;;;;;5002399;28;20057;-67
2021/05/23 04:42:37;;;;;;;64.55;40.40;;;10.60;95.90;;;;;;5005249;28;20473;-68
2021/05/23 04:45:04;;;;;;;66.57;40.35;;;10.60;95.90;;;;;;5001242;28;20108;-67
2021/05/23 04:47:30;;;;;;;65.70;41.25;;;10.60;95.90;;;;;;4988067;28;20094;-67
2021/05/23 04:49:55;;;;;;;67.53;39.58;;;10.70;95.90;;;;;;5000614;28;20039;-68
2021/05/23 04:52:21;;;;;;;63.60;40.92;;;10.60;95.90;;;;;;5003212;28;20022;-68
2021/05/23 04:54:46;;;;;;;59.70;39.08;;;10.60;95.90;;;;;;5001611;28;20050;-68
2021/05/23 04:57:12;;;;;;;62.45;39.03;;;10.60;95.90;;;;;;5002060;28;20026;-67
2021/05/23 04:59:38;;;;;;;59.17;36.70;;;10.60;95.90;;;;;;5005792;28;20201;-67
2021/05/23 05:02:04;;;;;;;59.65;36.72;;;10.60;95.90;;;;;;5000070;28;20197;-67
2021/05/23 05:04:29;;;;;;;59.03;37.50;;;10.60;96.00;;;;;;5000874;28;20018;-67
2021/05/23 05:06:55;;;;;;;58.67;36.88;;;10.60;96.00;;;;;;5003913;28;20342;-68
2021/05/23 05:09:21;;;;;;;60.40;36.60;;;10.60;96.00;;;;;;5003425;28;20026;-68
2021/05/23 05:11:46;;;;;;;57.00;36.00;;;10.60;96.30;;;;;;5012190;28;20033;-68
2021/05/23 05:14:12;;;;;;;53.13;35.33;;;10.50;95.90;;;;;;5001406;28;20430;-68
2021/05/23 05:16:40;;;;;;;54.63;35.95;;;10.60;96.00;;;;;;5008227;28;20109;-68
2021/05/23 05:19:05;;;;;;;46.72;33.63;;;10.60;96.00;;;;;;4987766;28;20041;-68
2021/05/23 05:21:31;;;;;;;54.13;35.30;;;10.60;96.00;;;;;;5001051;28;20026;-68
2021/05/23 05:23:56;;;;;;;46.13;32.47;;;10.70;96.00;;;;;;5001849;28;20022;-68
2021/05/23 05:26:22;;;;;;;47.03;32.90;;;10.80;96.00;;;;;;4986384;28;20608;-68
2021/05/23 05:28:48;;;;;;;52.35;35.22;;;10.80;96.00;;;;;;5002339;28;20117;-68
2021/05/23 05:31:13;;;;;;;56.35;36.53;;;10.80;95.90;;;;;;5004836;28;20034;-68
2021/05/23 05:33:39;;;;;;;56.92;35.83;;;10.90;95.90;;;;;;4999948;28;20059;-68
2021/05/23 05:36:05;;;;;;;54.38;34.92;;;10.90;95.80;;;;;;5003227;28;20061;-69
2021/05/23 05:38:31;;;;;;;49.78;32.22;;;11.00;95.80;;;;;;5008280;28;20029;-68
2021/05/23 05:40:56;;;;;;;46.28;32.38;;;10.90;95.60;;;;;;5006966;28;20022;-68
2021/05/23 05:43:23;;;;;;;44.20;32.35;;;10.90;95.60;;;;;;5003468;28;20075;-68
2021/05/23 05:45:48;;;;;;;48.22;28.95;;;10.90;95.60;;;;;;5006137;28;20072;-68
2021/05/23 05:48:14;;;;;;;41.63;27.90;;;10.90;95.60;;;;;;5004047;28;20061;-68
2021/05/23 05:50:40;;;;;;;38.85;25.80;;;10.90;95.60;;;;;;5008080;28;20471;-69
2021/05/23 05:53:05;;;;;;;30.95;23.88;;;10.90;95.50;;;;;;5001042;28;20026;-69
2021/05/23 05:55:31;;;;;;;39.78;23.10;;;10.90;95.40;;;;;;5005746;28;20034;-68
2021/05/23 05:57:56;;;;;;;33.22;20.58;;;10.90;95.50;;;;;;5007912;28;20037;-69
2021/05/23 06:00:22;;;;;;;31.88;19.25;;;10.90;95.40;;;;;;5006013;28;20045;-69
2021/05/23 06:02:48;;;;;;;31.65;18.48;;;10.90;95.30;;;;;;5007789;28;20080;-69
2021/05/23 06:05:14;;;;;;;26.50;17.88;;;10.90;95.30;;;;;;5011940;28;20546;-68
2021/05/23 06:07:39;;;;;;;25.33;16.48;;;10.90;95.30;;;;;;5001957;28;20037;-69
2021/05/23 06:10:06;;;;;;;26.80;15.70;;;10.90;95.20;;;;;;4998602;28;20040;-69
2021/05/23 06:12:31;;;;;;;26.23;14.90;;;10.90;95.20;;;;;;4993485;28;20040;-69
2021/05/23 06:14:57;;;;;;;26.30;15.13;;;11.00;95.10;;;;;;4990375;28;20038;-69
2021/05/23 06:17:23;;;;;;;23.80;14.40;;;11.10;95.00;;;;;;5010627;28;20033;-69
2021/05/23 06:19:48;;;;;;;22.60;13.13;;;11.10;95.00;;;;;;5005242;28;20082;-69
2021/05/23 06:22:14;;;;;;;21.08;12.90;;;11.20;94.80;;;;;;5013658;28;20037;-69
2021/05/23 06:24:40;;;;;;;17.05;11.52;;;11.10;94.60;;;;;;4998218;28;20030;-69
2021/05/23 06:27:06;;;;;;;17.95;11.77;;;11.10;94.50;;;;;;5007720;28;20455;-69
2021/05/23 06:29:31;;;;;;;19.20;11.63;;;11.10;94.50;;;;;;5006868;28;20018;-69
2021/05/23 06:31:57;;;;;;;17.13;10.40;;;11.10;94.50;;;;;;4986829;28;20027;-69
2021/05/23 06:34:22;;;;;;;19.85;9.98;;;11.10;94.50;;;;;;5005356;28;20022;-69
2021/05/23 06:36:48;;;;;;;24.20;10.98;;;11.10;94.40;;;;;;5001906;28;20070;-69
2021/05/23 06:39:14;;;;;;;23.38;10.43;;;11.10;94.30;;;;;;5008418;28;20026;-69
2021/05/23 06:41:40;;;;;;;18.42;9.38;;;11.20;94.10;;;;;;4987231;28;20022;-69
2021/05/23 06:44:06;;;;;;;24.30;10.65;;;11.20;94.00;;;;;;5002912;28;20114;-69
2021/05/23 06:46:31;;;;;;;18.20;10.02;;;11.20;93.90;;;;;;5003757;28;20026;-68
2021/05/23 06:48:57;;;;;;;19.65;8.93;;;11.20;93.70;;;;;;5003926;28;20034;-69
2021/05/23 06:51:23;;;;;;;17.73;9.85;;;11.20;93.60;;;;;;4997566;28;20613;-69
2021/05/23 06:53:48;;;;;;;21.52;10.13;;;11.10;93.50;;;;;;4985594;28;20033;-69
2021/05/23 06:56:14;;;;;;;23.13;9.45;;;11.10;93.50;;;;;;5001056;28;20476;-69
2021/05/23 06:58:43;;;;;;;17.60;8.20;;;11.10;93.50;;;;;;4985704;28;20028;-68
2021/05/23 07:01:10;;;;;;;20.20;7.05;;;11.20;93.60;;;;;;5001291;28;20034;-68
2021/05/23 07:03:36;;;;;;;14.15;6.72;;;11.20;93.30;;;;;;4996377;28;20023;-68
2021/05/23 07:06:03;;;;;;;17.40;6.60;;;11.20;93.10;;;;;;4991980;28;20038;-68
2021/05/23 07:08:28;;;;;;;14.25;6.40;;;11.30;92.90;;;;;;4980466;28;20030;-68
2021/05/23 07:10:54;;;;;;;17.83;6.20;;;11.20;92.90;;;;;;4991207;28;20023;-68
2021/05/23 07:13:22;;;;;;;15.13;5.45;;;11.20;92.60;;;;;;5002088;28;20036;-68
2021/05/23 07:15:48;;;;;;;14.60;6.45;;;11.10;92.50;;;;;;4985965;28;20034;-68
2021/05/23 07:18:13;;;;;;;12.20;5.00;;;11.10;92.70;;;;;;5004662;28;20048;-68
2021/05/23 07:20:39;;;;;;;12.15;5.10;;;11.10;92.60;;;;;;5003854;28;20029;-68
2021/05/23 07:23:05;;;;;;;15.02;5.75;;;11.10;92.50;;;;;;4998585;28;20586;-68
2021/05/23 07:25:33;;;;;;;14.43;5.13;;;11.20;92.60;;;;;;5004580;28;20045;-68
2021/05/23 07:27:58;;;;;;;11.90;4.72;;;11.30;92.50;;;;;;5000576;28;20062;-68
2021/05/23 07:30:24;;;;;;;12.60;4.40;;;11.50;92.40;;;;;;5000429;28;20022;-68
2021/05/23 07:32:49;;;;;;;11.65;4.47;;;11.60;92.40;;;;;;4997245;28;20410;-68
2021/05/23 07:35:15;;;;;;;12.93;4.50;;;11.70;92.20;;;;;;5000346;28;20426;-68
2021/05/23 07:37:40;;;;;;;7.75;4.20;;;11.80;92.20;;;;;;5003880;28;20036;-68
2021/05/23 07:40:07;;;;;;;11.00;4.07;;;11.90;91.90;;;;;;5002414;28;20486;-69
2021/05/23 07:42:32;;;;;;;10.02;4.57;;;12.00;91.50;;;;;;5001753;28;20039;-68
2021/05/23 07:44:58;;;;;;;10.77;4.80;;;12.00;91.40;;;;;;4999297;28;20110;-68
2021/05/23 07:47:23;;;;;;;14.43;5.30;;;12.10;91.40;;;;;;4997461;28;20470;-68
2021/05/23 07:49:49;;;;;;;16.58;5.30;;;12.10;91.10;;;;;;4999689;28;20041;-68
2021/05/23 07:52:14;;;;;;;12.52;4.78;;;12.20;91.10;;;;;;5001631;28;20126;-68
2021/05/23 07:54:41;;;;;;;7.80;4.47;;;12.20;90.90;;;;;;4995354;28;20049;-68
2021/05/23 07:57:08;;;;;;;10.52;4.35;;;12.20;91.00;;;;;;5002114;28;20029;-68
2021/05/23 07:59:34;;;;;;;12.43;4.85;;;12.30;90.90;;;;;;5009348;28;20018;-68
2021/05/23 08:02:00;;;;;;;15.75;5.22;;;12.20;90.40;;;;;;5003661;28;20121;-68
2021/05/23 08:04:26;;;;;;;14.70;4.88;;;12.10;90.30;;;;;;4984730;28;20059;-68
2021/05/23 08:06:51;;;;;;;11.00;5.05;;;12.00;90.30;;;;;;5004312;28;20529;-68
2021/05/23 08:09:19;;;;;;;16.52;4.95;;;11.90;90.20;;;;;;4985245;28;20121;-68
2021/05/23 08:11:46;;;;;;;8.15;4.90;;;11.90;90.20;;;;;;5006811;28;20022;-69
2021/05/23 08:14:11;;;;;;;11.30;4.78;;;11.90;89.50;;;;;;5006949;28;20116;-68
2021/05/23 08:16:37;;;;;;;6.15;4.10;;;11.90;89.00;;;;;;5007036;28;20097;-68
2021/05/23 08:19:04;;;;;;;10.60;3.85;;;11.90;89.20;;;;;;5007468;28;20053;-68
2021/05/23 08:21:29;;;;;;;9.43;3.63;;;12.00;89.20;;;;;;5007166;28;20071;-69
2021/05/23 08:23:55;;;;;;;10.30;3.25;;;12.00;89.10;;;;;;5007253;28;20034;-68
2021/05/23 08:26:23;;;;;;;14.40;3.10;;;12.20;89.00;;;;;;5006231;28;20111;-68
2021/05/23 08:28:49;;;;;;;6.22;2.22;;;12.40;88.50;;;;;;5012706;28;20037;-68
2021/05/23 08:31:14;;;;;;;8.48;1.85;;;12.50;86.80;;;;;;5009040;28;20049;-68
2021/05/23 08:33:40;;;;;;;9.85;1.77;;;12.70;86.20;;;;;;5004006;28;20033;-68
2021/05/23 08:36:06;;;;;;;10.02;1.98;;;12.80;85.30;;;;;;5007778;28;20037;-68
2021/05/23 08:38:32;;;;;;;8.30;1.80;;;12.80;84.80;;;;;;5008474;28;20026;-69
2021/05/23 08:40:57;;;;;;;6.25;1.80;;;12.90;84.70;;;;;;5008833;28;20079;-68
2021/05/23 08:43:26;;;;;;;6.75;1.50;;;12.90;83.80;;;;;;5004999;28;20026;-68
2021/05/23 08:45:52;;;;;;;6.38;1.23;;;12.80;82.80;;;;;;5008835;28;20075;-68
2021/05/23 08:48:19;;;;;;;9.70;1.30;;;12.80;82.50;;;;;;5008595;28;20130;-68
2021/05/23 08:50:46;;;;;;;6.00;1.20;;;12.80;82.90;;;;;;5000684;28;20073;-68
2021/05/23 08:53:11;;;;;;;9.73;1.67;;;12.80;82.80;;;;;;5004242;28;20021;-68
2021/05/23 08:55:38;;;;;;;5.68;1.20;;;12.90;82.30;;;;;;5005263;28;20034;-68
2021/05/23 08:58:05;;;;;;;5.45;0.90;;;12.90;81.60;;;;;;5005854;28;20113;-68
2021/05/23 09:00:30;;;;;;;6.35;0.80;;;13.00;80.50;;;;;;4993842;28;20025;-68
2021/05/23 09:02:57;;;;;;;5.45;0.60;;;13.10;79.60;;;;;;5010120;28;20037;-68
2021/05/23 09:05:33;;;;;;;5.93;0.80;;;13.20;77.80;;;;;;5004804;28;20510;-68
2021/05/23 09:08:01;;;;;;;7.13;0.88;;;13.40;77.40;;;;;;5009106;28;20049;-68
2021/05/23 09:10:32;;;;;;;2.92;0.65;;;13.70;76.60;;;;;;4991929;28;20045;-68
2021/05/23 09:12:59;;;;;;;4.03;0.40;;;13.80;73.10;;;;;;5009225;28;20053;-68
2021/05/23 09:15:25;;;;;;;4.22;0.70;;;14.00;70.40;;;;;;5003762;28;20037;-68
2021/05/23 09:18:15;;;;;;;2.83;0.57;;;13.90;69.50;;;;;;5005738;28;20022;-68
2021/05/23 09:20:43;;;;;;;4.63;0.50;;;13.90;70.00;;;;;;5005636;28;20067;-68
2021/05/23 09:23:21;;;;;;;6.63;0.55;;;13.90;70.00;;;;;;4990900;28;20471;-68
2021/05/23 09:25:47;;;;;;;3.78;0.50;;;14.00;69.10;;;;;;5006964;28;20052;-68
2021/05/23 09:28:12;;;;;;;5.28;0.60;;;13.90;69.60;;;;;;5002716;28;20049;-68
2021/05/23 09:30:42;;;;;;;2.38;0.60;;;13.90;70.10;;;;;;5004503;28;20395;-68
2021/05/23 09:33:12;;;;;;;4.57;0.73;;;13.80;70.20;;;;;;5007467;28;20022;-69
2021/05/23 09:35:43;;;;;;;6.15;0.60;;;13.70;70.40;;;;;;5003487;28;20471;-68
2021/05/23 09:38:09;;;;;;;4.22;0.90;;;13.70;72.10;;;;;;5007680;28;20025;-67
2021/05/23 09:40:37;;;;;;;6.85;0.82;;;13.70;72.50;;;;;;5002169;28;20396;-67
2021/05/23 09:43:04;;;;;;;6.63;1.00;;;13.80;72.40;;;;;;5011288;28;20026;-67
2021/05/23 09:45:46;;;;;;;5.80;1.10;;;14.00;71.70;;;;;;5006747;28;20776;-67
2021/05/23 09:48:20;;;;;;;;;;;14.10;71.30;;;;;;5002570;28;20041;-67
2021/05/23 09:50:48;;;;;;;4.35;1.05;;;14.20;70.30;;;;;;5000339;28;20317;-67
2021/05/23 09:53:27;;;;;;;4.20;1.20;;;14.30;70.20;;;;;;5002592;28;20022;-68
2021/05/23 09:55:58;;;;;;;9.73;0.90;;;14.50;70.30;;;;;;4985263;28;20113;-67
2021/05/23 09:58:36;;;;;;;5.13;1.15;;;14.60;69.50;;;;;;4988955;28;20059;-67
2021/05/23 10:01:04;;;;;;;4.70;1.10;;;14.50;68.90;;;;;;4991749;28;20113;-69
2021/05/23 10:03:31;;;;;;;6.97;1.20;;;14.30;68.80;;;;;;5008111;28;20026;-68
2021/05/23 10:05:58;;;;;;;5.85;0.80;;;14.10;69.20;;;;;;5012516;28;20030;-68
2021/05/23 10:08:25;;;;;;;4.43;0.70;;;14.00;69.60;;;;;;5002627;28;20034;-68
2021/05/23 10:10:51;;;;;;;6.40;0.98;;;14.00;69.00;;;;;;5006152;28;20038;-68
2021/05/23 10:13:17;;;;;;;3.78;0.85;;;14.00;69.60;;;;;;5000409;28;20041;-68
2021/05/23 10:15:43;;;;;;;3.78;0.60;;;14.00;68.00;;;;;;5000037;28;20392;-68
2021/05/23 10:18:09;;;;;;;5.45;0.77;;;14.00;67.90;;;;;;5007620;28;20112;-69
2021/05/23 10:20:36;;;;;;;6.20;0.60;;;14.10;67.70;;;;;;5005688;28;20109;-68
2021/05/23 10:23:11;;;;;;;6.05;0.70;;;14.30;67.80;;;;;;5002388;28;20499;-68
2021/05/23 10:25:38;;;;;;;4.50;0.45;;;14.50;66.60;;;;;;5009583;28;20037;-68
2021/05/23 10:28:04;;;;;;;2.38;0.50;;;14.70;63.50;;;;;;5005623;28;20399;-68
2021/05/23 10:30:31;;;;;;;3.38;0.50;;;14.80;63.80;;;;;;4998058;28;20042;-68
2021/05/23 10:32:57;;;;;;;3.15;0.40;;;15.10;62.80;;;;;;5008687;28;20384;-68
2021/05/23 10:35:32;;;;;;;3.92;0.68;;;15.10;61.60;;;;;;5011503;28;20383;-68
2021/05/23 10:38:08;;;;;;;5.32;0.98;;;15.20;61.10;;;;;;5012250;28;20015;-69
2021/05/23 10:40:35;;;;;;;3.20;0.43;;;15.10;61.70;;;;;;5010762;28;20029;-68
2021/05/23 10:43:01;;;;;;;3.83;0.60;;;14.90;61.60;;;;;;5007881;28;20014;-69
2021/05/23 10:45:30;;;;;;;5.20;0.60;;;14.90;61.70;;;;;;4987679;28;20505;-68
2021/05/23 10:47:57;;;;;;;5.22;0.77;;;15.10;62.90;;;;;;4997372;28;20121;-68
2021/05/23 10:50:34;;;;;;;3.33;0.50;;;15.20;63.40;;;;;;4989506;28;20182;-68
2021/05/23 10:53:00;;;;;;;4.43;0.90;;;15.10;61.30;;;;;;5003003;28;20030;-68
2021/05/23 10:55:26;;;;;;;4.93;0.50;;;14.80;61.90;;;;;;4987642;28;20612;-68
2021/05/23 10:57:53;;;;;;;4.13;0.70;;;14.80;63.20;;;;;;5002080;28;20026;-68
2021/05/23 11:00:24;;;;;;;4.07;1.30;;;14.70;62.70;;;;;;5005039;28;20025;-68
2021/05/23 11:02:54;;;;;;;3.25;0.50;;;14.70;62.40;;;;;;4991233;28;20055;-68
2021/05/23 11:05:28;;;;;;;7.32;0.55;;;14.80;62.80;;;;;;5003249;28;20091;-68
2021/05/23 11:08:01;;;;;;;4.85;0.70;;;15.00;62.80;;;;;;5004517;28;20474;-68
2021/05/23 11:10:31;;;;;;;3.28;0.60;;;15.40;63.60;;;;;;5004985;28;20042;-68
2021/05/23 11:12:59;;;;;;;6.65;0.60;;;15.80;62.20;;;;;;4999504;28;20030;-68
2021/05/23 11:15:26;;;;;;;4.72;0.73;;;16.20;61.80;;;;;;5002672;28;20017;-68
2021/05/23 11:17:54;;;;;;;2.97;0.73;;;16.50;60.90;;;;;;5001418;28;20086;-68
2021/05/23 11:20:19;;;;;;;3.70;0.95;;;16.50;57.60;;;;;;5004992;28;20025;-68
2021/05/23 11:22:46;;;;;;;5.72;0.63;;;16.40;58.10;;;;;;5008493;28;20026;-68
2021/05/23 11:25:14;;;;;;;5.28;0.68;;;16.30;57.40;;;;;;4991583;28;20038;-68
2021/05/23 11:27:39;;;;;;;4.47;0.50;;;16.10;57.60;;;;;;5020520;28;20372;-68
2021/05/23 11:30:12;;;;;;;3.28;0.30;;;16.00;58.10;;;;;;5007558;28;20110;-68
2021/05/23 11:32:38;;;;;;;3.72;0.38;;;15.90;56.80;;;;;;4989660;28;20072;-68
2021/05/23 11:35:04;;;;;;;3.95;0.40;;;15.80;54.00;;;;;;4988719;28;20040;-68
2021/05/23 11:37:38;;;;;;;3.83;0.30;;;15.70;52.40;;;;;;5007525;28;20092;-68
2021/05/23 11:40:09;;;;;;;3.92;0.30;;;15.80;53.70;;;;;;5006033;28;20067;-68
2021/05/23 11:42:40;;;;;;;2.97;0.50;;;15.90;52.50;;;;;;4989707;28;20112;-68
2021/05/23 11:45:06;;;;;;;3.58;0.55;;;16.00;53.00;;;;;;5009173;28;20052;-68
2021/05/23 11:47:43;;;;;;;4.25;0.30;;;16.00;53.50;;;;;;4993239;28;20051;-68
2021/05/23 11:50:20;;;;;;;3.20;0.30;;;15.90;53.70;;;;;;5001779;28;20099;-68
2021/05/23 11:52:48;;;;;;;5.85;0.63;;;15.90;53.50;;;;;;4987358;28;20037;-68
2021/05/23 11:55:14;;;;;;;5.47;0.60;;;15.90;53.40;;;;;;4992815;28;20090;-68
2021/05/23 11:57:40;;;;;;;3.95;0.68;;;15.80;53.80;;;;;;4998012;28;20030;-68
2021/05/23 12:00:16;;;;;;;4.38;0.40;;;15.90;55.30;;;;;;4999810;28;20118;-68
2021/05/23 12:02:41;;;;;;;4.15;1.02;;;16.00;55.10;;;;;;5004737;28;20018;-68
2021/05/23 12:05:08;;;;;;;6.07;0.40;;;16.10;54.40;;;;;;5002620;28;20369;-69
2021/05/23 12:07:37;;;;;;;2.85;0.38;;;16.20;53.40;;;;;;4990357;28;20032;-68
2021/05/23 12:10:04;;;;;;;6.15;0.40;;;16.30;53.70;;;;;;5001000;28;20031;-68
2021/05/23 12:12:29;;;;;;;2.55;0.80;;;16.30;51.00;;;;;;4978890;28;20436;-68
2021/05/23 12:14:55;;;;;;;3.65;0.60;;;16.10;50.90;;;;;;4996220;28;20100;-67
2021/05/23 12:17:20;;;;;;;7.30;0.73;;;16.10;52.40;;;;;;4988878;28;20464;-67
2021/05/23 12:19:55;;;;;;;3.33;0.40;;;16.10;51.50;;;;;;5003544;28;20777;-67
2021/05/23 12:22:35;;;;;;;3.63;0.40;;;16.20;52.20;;;;;;4991548;28;20472;-67
2021/05/23 12:25:04;;;;;;;3.15;0.50;;;16.30;51.60;;;;;;4989160;28;20037;-68
2021/05/23 12:27:48;;;;;;;2.58;0.30;;;16.40;51.10;;;;;;4994724;28;20088;-68
2021/05/23 12:30:24;;;;;;;3.20;0.40;;;16.50;49.40;;;;;;4991787;28;20056;-68
2021/05/23 12:33:18;;;;;;;3.83;0.47;;;16.30;49.50;;;;;;5005083;28;20029;-68
2021/05/23 12:35:43;;;;;;;6.13;1.42;;;16.30;50.70;;;;;;4985121;28;20369;-68
2021/05/23 12:38:16;;;;;;;3.47;0.35;;;16.30;50.20;;;;;;4989329;28;20037;-68